sensor_id;sensor_type;location;lat;lon;timestamp;temperature;humidity
11246;DHT22;59870;50.106;8.580;2022-08-21T00:01:02;23.20;54.80
11246;DHT22;59870;50.106;8.580;2022-08-21T00:03:33;23.40;55.30
11246;DHT22;59870;50.106;8.580;2022-08-21T00:06:01;23.30;55.20
11246;DHT22;59870;50.106;8.580;2022-08-21T00:08:29;23.00;55.20
11246;DHT22;59870;50.106;8.580;2022-08-21T00:10:57;22.90;55.00
11246;DHT22;59870;50.106;8.580;2022-08-21T00:13:25;22.90;54.90
11246;DHT22;59870;50.106;8.580;2022-08-21T00:15:52;22.90;55.20
11246;DHT22;59870;50.106;8.580;2022-08-21T00:18:20;22.90;55.40
11246;DHT22;59870;50.106;8.580;2022-08-21T00:20:49;23.10;55.50
11246;DHT22;59870;50.106;8.580;2022-08-21T00:23:17;22.80;55.70
11246;DHT22;59870;50.106;8.580;2022-08-21T00:25:45;23.20;56.20
11246;DHT22;59870;50.106;8.580;2022-08-21T00:28:13;22.80;55.60
11246;DHT22;59870;50.106;8.580;2022-08-21T00:30:42;22.70;55.80
11246;DHT22;59870;50.106;8.580;2022-08-21T00:33:11;22.80;55.80
11246;DHT22;59870;50.106;8.580;2022-08-21T00:35:41;22.70;56.10
11246;DHT22;59870;50.106;8.580;2022-08-21T00:38:09;23.00;56.60
11246;DHT22;59870;50.106;8.580;2022-08-21T00:40:49;22.60;56.10
11246;DHT22;59870;50.106;8.580;2022-08-21T00:43:22;22.50;56.30
11246;DHT22;59870;50.106;8.580;2022-08-21T00:45:50;22.60;56.40
11246;DHT22;59870;50.106;8.580;2022-08-21T00:48:18;22.50;56.40
11246;DHT22;59870;50.106;8.580;2022-08-21T00:50:50;22.70;57.60
11246;DHT22;59870;50.106;8.580;2022-08-21T00:53:19;22.40;57.50
11246;DHT22;59870;50.106;8.580;2022-08-21T00:55:46;22.40;57.50
11246;DHT22;59870;50.106;8.580;2022-08-21T00:58:16;22.40;57.90
11246;DHT22;59870;50.106;8.580;2022-08-21T01:00:47;22.30;58.10
11246;DHT22;59870;50.106;8.580;2022-08-21T01:03:18;22.30;57.90
11246;DHT22;59870;50.106;8.580;2022-08-21T01:05:50;22.40;58.00
11246;DHT22;59870;50.106;8.580;2022-08-21T01:08:19;22.60;58.30
11246;DHT22;59870;50.106;8.580;2022-08-21T01:10:48;22.40;58.10
11246;DHT22;59870;50.106;8.580;2022-08-21T01:13:26;22.70;58.50
11246;DHT22;59870;50.106;8.580;2022-08-21T01:15:56;22.20;57.90
11246;DHT22;59870;50.106;8.580;2022-08-21T01:18:27;22.90;58.60
11246;DHT22;59870;50.106;8.580;2022-08-21T01:21:12;22.60;58.70
11246;DHT22;59870;50.106;8.580;2022-08-21T01:23:43;22.10;58.00
11246;DHT22;59870;50.106;8.580;2022-08-21T01:26:13;22.10;58.10
11246;DHT22;59870;50.106;8.580;2022-08-21T01:28:45;22.10;58.30
11246;DHT22;59870;50.106;8.580;2022-08-21T01:31:15;22.00;58.80
11246;DHT22;59870;50.106;8.580;2022-08-21T01:33:51;22.00;58.90
11246;DHT22;59870;50.106;8.580;2022-08-21T01:36:18;22.00;59.00
11246;DHT22;59870;50.106;8.580;2022-08-21T01:38:46;22.50;59.20
11246;DHT22;59870;50.106;8.580;2022-08-21T01:41:15;22.00;58.90
11246;DHT22;59870;50.106;8.580;2022-08-21T01:43:43;22.60;59.60
11246;DHT22;59870;50.106;8.580;2022-08-21T01:46:12;21.90;59.40
11246;DHT22;59870;50.106;8.580;2022-08-21T01:48:40;21.80;59.70
11246;DHT22;59870;50.106;8.580;2022-08-21T01:51:08;21.80;59.70
11246;DHT22;59870;50.106;8.580;2022-08-21T01:53:36;21.80;60.10
11246;DHT22;59870;50.106;8.580;2022-08-21T01:56:07;22.20;60.30
11246;DHT22;59870;50.106;8.580;2022-08-21T01:58:44;21.70;60.20
11246;DHT22;59870;50.106;8.580;2022-08-21T02:01:12;21.70;60.10
11246;DHT22;59870;50.106;8.580;2022-08-21T02:03:40;21.70;60.70
11246;DHT22;59870;50.106;8.580;2022-08-21T02:06:13;21.70;61.10
11246;DHT22;59870;50.106;8.580;2022-08-21T02:08:42;22.30;62.20
11246;DHT22;59870;50.106;8.580;2022-08-21T02:11:09;21.60;61.90
11246;DHT22;59870;50.106;8.580;2022-08-21T02:13:36;21.80;62.60
11246;DHT22;59870;50.106;8.580;2022-08-21T02:16:04;21.90;62.50
11246;DHT22;59870;50.106;8.580;2022-08-21T02:18:32;21.50;62.00
11246;DHT22;59870;50.106;8.580;2022-08-21T02:20:59;21.50;62.20
11246;DHT22;59870;50.106;8.580;2022-08-21T02:23:27;21.40;62.30
11246;DHT22;59870;50.106;8.580;2022-08-21T02:25:57;22.20;63.10
11246;DHT22;59870;50.106;8.580;2022-08-21T02:28:25;21.40;62.80
11246;DHT22;59870;50.106;8.580;2022-08-21T02:30:55;21.30;62.70
11246;DHT22;59870;50.106;8.580;2022-08-21T02:33:24;21.40;63.50
11246;DHT22;59870;50.106;8.580;2022-08-21T02:35:52;21.90;64.80
11246;DHT22;59870;50.106;8.580;2022-08-21T02:38:23;21.90;65.90
11246;DHT22;59870;50.106;8.580;2022-08-21T02:40:51;21.20;65.90
11246;DHT22;59870;50.106;8.580;2022-08-21T02:43:21;21.90;66.80
11246;DHT22;59870;50.106;8.580;2022-08-21T02:45:50;21.60;66.50
11246;DHT22;59870;50.106;8.580;2022-08-21T02:48:22;21.10;66.40
11246;DHT22;59870;50.106;8.580;2022-08-21T02:50:56;21.70;67.00
11246;DHT22;59870;50.106;8.580;2022-08-21T02:53:24;21.10;66.50
11246;DHT22;59870;50.106;8.580;2022-08-21T02:55:52;21.00;66.70
11246;DHT22;59870;50.106;8.580;2022-08-21T02:58:23;21.00;66.50
11246;DHT22;59870;50.106;8.580;2022-08-21T03:00:52;21.00;66.50
11246;DHT22;59870;50.106;8.580;2022-08-21T03:03:19;21.00;66.60
11246;DHT22;59870;50.106;8.580;2022-08-21T03:05:48;21.40;67.30
11246;DHT22;59870;50.106;8.580;2022-08-21T03:08:17;20.90;66.90
11246;DHT22;59870;50.106;8.580;2022-08-21T03:10:48;21.50;67.60
11246;DHT22;59870;50.106;8.580;2022-08-21T03:13:16;20.90;67.00
11246;DHT22;59870;50.106;8.580;2022-08-21T03:15:44;20.90;67.10
11246;DHT22;59870;50.106;8.580;2022-08-21T03:18:12;21.00;67.40
11246;DHT22;59870;50.106;8.580;2022-08-21T03:20:41;20.70;67.60
11246;DHT22;59870;50.106;8.580;2022-08-21T03:23:10;20.70;67.90
11246;DHT22;59870;50.106;8.580;2022-08-21T03:25:41;20.90;68.10
11246;DHT22;59870;50.106;8.580;2022-08-21T03:28:12;20.70;68.30
11246;DHT22;59870;50.106;8.580;2022-08-21T03:30:42;21.10;69.40
11246;DHT22;59870;50.106;8.580;2022-08-21T03:33:10;20.60;69.20
11246;DHT22;59870;50.106;8.580;2022-08-21T03:35:43;21.20;69.80
11246;DHT22;59870;50.106;8.580;2022-08-21T03:38:13;20.60;69.30
11246;DHT22;59870;50.106;8.580;2022-08-21T03:40:42;21.00;69.60
11246;DHT22;59870;50.106;8.580;2022-08-21T03:43:10;20.50;69.10
11246;DHT22;59870;50.106;8.580;2022-08-21T03:45:38;20.90;69.50
11246;DHT22;59870;50.106;8.580;2022-08-21T03:48:07;20.50;69.20
11246;DHT22;59870;50.106;8.580;2022-08-21T03:50:41;20.90;69.50
11246;DHT22;59870;50.106;8.580;2022-08-21T03:53:11;20.40;69.40
11246;DHT22;59870;50.106;8.580;2022-08-21T03:55:45;20.40;69.20
11246;DHT22;59870;50.106;8.580;2022-08-21T03:58:16;20.00;68.50
11246;DHT22;59870;50.106;8.580;2022-08-21T04:00:52;20.40;69.40
11246;DHT22;59870;50.106;8.580;2022-08-21T04:03:21;20.40;69.20
11246;DHT22;59870;50.106;8.580;2022-08-21T04:05:48;20.30;68.80
11246;DHT22;59870;50.106;8.580;2022-08-21T04:08:17;20.80;69.80
11246;DHT22;59870;50.106;8.580;2022-08-21T04:10:48;20.30;70.00
11246;DHT22;59870;50.106;8.580;2022-08-21T04:13:16;20.30;69.90
11246;DHT22;59870;50.106;8.580;2022-08-21T04:15:44;20.70;71.00
11246;DHT22;59870;50.106;8.580;2022-08-21T04:18:12;20.20;70.00
11246;DHT22;59870;50.106;8.580;2022-08-21T04:20:42;20.70;70.40
11246;DHT22;59870;50.106;8.580;2022-08-21T04:23:18;20.50;70.30
11246;DHT22;59870;50.106;8.580;2022-08-21T04:25:52;20.20;70.50
11246;DHT22;59870;50.106;8.580;2022-08-21T04:28:21;20.20;70.90
11246;DHT22;59870;50.106;8.580;2022-08-21T04:30:51;20.20;70.80
11246;DHT22;59870;50.106;8.580;2022-08-21T04:33:44;20.20;70.80
11246;DHT22;59870;50.106;8.580;2022-08-21T04:38:06;20.10;70.30
11246;DHT22;59870;50.106;8.580;2022-08-21T04:41:25;20.10;70.00
11246;DHT22;59870;50.106;8.580;2022-08-21T04:48:03;19.80;70.50
11246;DHT22;59870;50.106;8.580;2022-08-21T04:57:46;20.00;71.20
11246;DHT22;59870;50.106;8.580;2022-08-21T05:02:07;19.50;71.20
11246;DHT22;59870;50.106;8.580;2022-08-21T05:06:18;19.90;72.50
11246;DHT22;59870;50.106;8.580;2022-08-21T05:28:40;19.90;75.00
11246;DHT22;59870;50.106;8.580;2022-08-21T05:32:12;19.70;75.20
11246;DHT22;59870;50.106;8.580;2022-08-21T05:35:08;20.00;76.30
11246;DHT22;59870;50.106;8.580;2022-08-21T05:37:37;20.00;76.60
11246;DHT22;59870;50.106;8.580;2022-08-21T05:49:51;21.00;73.60
11246;DHT22;59870;50.106;8.580;2022-08-21T05:52:44;21.10;73.20
11246;DHT22;59870;50.106;8.580;2022-08-21T05:55:13;21.30;73.10
11246;DHT22;59870;50.106;8.580;2022-08-21T05:57:40;21.40;72.60
11246;DHT22;59870;50.106;8.580;2022-08-21T06:00:09;22.10;70.60
11246;DHT22;59870;50.106;8.580;2022-08-21T06:02:40;21.70;69.20
11246;DHT22;59870;50.106;8.580;2022-08-21T06:05:08;22.20;69.40
11246;DHT22;59870;50.106;8.580;2022-08-21T06:07:36;22.60;70.90
11246;DHT22;59870;50.106;8.580;2022-08-21T06:10:04;22.30;68.20
11246;DHT22;59870;50.106;8.580;2022-08-21T06:12:31;22.50;66.80
11246;DHT22;59870;50.106;8.580;2022-08-21T06:14:58;22.90;65.80
11246;DHT22;59870;50.106;8.580;2022-08-21T06:17:26;22.80;63.90
11246;DHT22;59870;50.106;8.580;2022-08-21T06:19:54;23.00;65.20
11246;DHT22;59870;50.106;8.580;2022-08-21T06:22:21;23.20;63.40
11246;DHT22;59870;50.106;8.580;2022-08-21T06:24:49;24.00;63.10
11246;DHT22;59870;50.106;8.580;2022-08-21T06:27:16;23.70;61.10
11246;DHT22;59870;50.106;8.580;2022-08-21T06:29:44;24.60;61.50
11246;DHT22;59870;50.106;8.580;2022-08-21T06:32:12;24.40;61.20
11246;DHT22;59870;50.106;8.580;2022-08-21T06:34:43;25.50;58.90
11246;DHT22;59870;50.106;8.580;2022-08-21T06:37:10;25.40;57.20
11246;DHT22;59870;50.106;8.580;2022-08-21T06:39:38;25.80;55.70
11246;DHT22;59870;50.106;8.580;2022-08-21T06:42:15;26.30;54.60
11246;DHT22;59870;50.106;8.580;2022-08-21T06:44:44;26.70;53.70
11246;DHT22;59870;50.106;8.580;2022-08-21T06:47:12;27.20;51.80
11246;DHT22;59870;50.106;8.580;2022-08-21T06:49:40;27.50;50.70
11246;DHT22;59870;50.106;8.580;2022-08-21T06:52:12;27.80;50.90
11246;DHT22;59870;50.106;8.580;2022-08-21T06:54:40;28.90;50.20
11246;DHT22;59870;50.106;8.580;2022-08-21T06:57:08;28.70;48.90
11246;DHT22;59870;50.106;8.580;2022-08-21T06:59:36;29.10;47.30
11246;DHT22;59870;50.106;8.580;2022-08-21T07:02:04;29.30;46.00
11246;DHT22;59870;50.106;8.580;2022-08-21T07:04:31;29.50;46.20
11246;DHT22;59870;50.106;8.580;2022-08-21T07:06:59;29.90;45.20
11246;DHT22;59870;50.106;8.580;2022-08-21T07:09:26;30.20;44.10
11246;DHT22;59870;50.106;8.580;2022-08-21T07:11:55;30.50;44.00
11246;DHT22;59870;50.106;8.580;2022-08-21T07:14:23;30.90;43.20
11246;DHT22;59870;50.106;8.580;2022-08-21T07:16:50;31.20;42.30
11246;DHT22;59870;50.106;8.580;2022-08-21T07:19:19;32.10;43.10
11246;DHT22;59870;50.106;8.580;2022-08-21T07:21:46;31.90;42.20
11246;DHT22;59870;50.106;8.580;2022-08-21T07:24:14;32.30;40.90
11246;DHT22;59870;50.106;8.580;2022-08-21T07:26:41;32.70;39.80
11246;DHT22;59870;50.106;8.580;2022-08-21T07:29:09;33.20;38.90
11246;DHT22;59870;50.106;8.580;2022-08-21T07:31:36;33.70;38.30
11246;DHT22;59870;50.106;8.580;2022-08-21T07:34:04;33.70;37.50
11246;DHT22;59870;50.106;8.580;2022-08-21T07:36:32;34.00;37.90
11246;DHT22;59870;50.106;8.580;2022-08-21T07:39:01;34.30;36.40
11246;DHT22;59870;50.106;8.580;2022-08-21T07:41:29;34.70;36.40
11246;DHT22;59870;50.106;8.580;2022-08-21T07:43:57;34.90;35.10
11246;DHT22;59870;50.106;8.580;2022-08-21T07:46:25;34.90;35.70
11246;DHT22;59870;50.106;8.580;2022-08-21T07:48:53;34.90;35.60
11246;DHT22;59870;50.106;8.580;2022-08-21T07:51:25;35.20;35.10
11246;DHT22;59870;50.106;8.580;2022-08-21T07:53:54;35.50;35.40
11246;DHT22;59870;50.106;8.580;2022-08-21T07:56:22;35.80;34.30
11246;DHT22;59870;50.106;8.580;2022-08-21T07:58:49;36.30;34.30
11246;DHT22;59870;50.106;8.580;2022-08-21T08:01:18;36.50;33.70
11246;DHT22;59870;50.106;8.580;2022-08-21T08:03:46;36.90;33.60
11246;DHT22;59870;50.106;8.580;2022-08-21T08:06:20;37.30;31.60
11246;DHT22;59870;50.106;8.580;2022-08-21T08:08:54;37.70;31.80
11246;DHT22;59870;50.106;8.580;2022-08-21T08:11:57;37.40;30.90
11246;DHT22;59870;50.106;8.580;2022-08-21T08:14:25;38.30;30.30
11246;DHT22;59870;50.106;8.580;2022-08-21T08:17:00;38.50;30.10
11246;DHT22;59870;50.106;8.580;2022-08-21T08:19:29;38.60;29.20
11246;DHT22;59870;50.106;8.580;2022-08-21T08:21:57;39.00;29.50
11246;DHT22;59870;50.106;8.580;2022-08-21T08:24:25;39.30;29.40
11246;DHT22;59870;50.106;8.580;2022-08-21T08:26:53;39.60;29.30
11246;DHT22;59870;50.106;8.580;2022-08-21T08:29:24;39.90;28.90
11246;DHT22;59870;50.106;8.580;2022-08-21T08:31:53;40.10;27.90
11246;DHT22;59870;50.106;8.580;2022-08-21T08:34:21;40.20;28.20
11246;DHT22;59870;50.106;8.580;2022-08-21T08:36:52;40.50;27.90
11246;DHT22;59870;50.106;8.580;2022-08-21T08:39:19;40.70;28.10
11246;DHT22;59870;50.106;8.580;2022-08-21T08:42:32;41.20;27.20
11246;DHT22;59870;50.106;8.580;2022-08-21T08:53:19;41.90;28.00
11246;DHT22;59870;50.106;8.580;2022-08-21T08:59:48;42.30;26.00
11246;DHT22;59870;50.106;8.580;2022-08-21T09:03:10;42.50;25.90
11246;DHT22;59870;50.106;8.580;2022-08-21T09:06:37;42.50;24.80
11246;DHT22;59870;50.106;8.580;2022-08-21T09:20:23;42.80;23.70
11246;DHT22;59870;50.106;8.580;2022-08-21T09:26:15;43.00;24.00
11246;DHT22;59870;50.106;8.580;2022-08-21T09:28:44;43.10;23.20
11246;DHT22;59870;50.106;8.580;2022-08-21T09:34:05;43.10;22.70
11246;DHT22;59870;50.106;8.580;2022-08-21T09:36:45;43.00;23.20
11246;DHT22;59870;50.106;8.580;2022-08-21T09:39:28;42.60;23.30
11246;DHT22;59870;50.106;8.580;2022-08-21T09:42:04;42.60;23.80
11246;DHT22;59870;50.106;8.580;2022-08-21T09:44:39;42.50;23.40
11246;DHT22;59870;50.106;8.580;2022-08-21T09:47:11;42.30;23.30
11246;DHT22;59870;50.106;8.580;2022-08-21T09:49:43;42.10;23.40
11246;DHT22;59870;50.106;8.580;2022-08-21T09:52:22;41.90;24.00
11246;DHT22;59870;50.106;8.580;2022-08-21T09:55:21;41.70;23.80
11246;DHT22;59870;50.106;8.580;2022-08-21T09:58:10;41.20;24.20
11246;DHT22;59870;50.106;8.580;2022-08-21T10:00:38;40.70;24.40
11246;DHT22;59870;50.106;8.580;2022-08-21T10:03:16;40.20;24.90
11246;DHT22;59870;50.106;8.580;2022-08-21T10:05:59;39.90;25.40
11246;DHT22;59870;50.106;8.580;2022-08-21T10:08:29;39.60;25.20
11246;DHT22;59870;50.106;8.580;2022-08-21T10:11:05;39.20;25.60
11246;DHT22;59870;50.106;8.580;2022-08-21T10:24:31;37.50;28.00
11246;DHT22;59870;50.106;8.580;2022-08-21T10:30:11;37.00;27.50
11246;DHT22;59870;50.106;8.580;2022-08-21T10:33:27;36.70;27.90
11246;DHT22;59870;50.106;8.580;2022-08-21T10:44:32;35.60;29.70
11246;DHT22;59870;50.106;8.580;2022-08-21T10:47:06;35.40;29.90
11246;DHT22;59870;50.106;8.580;2022-08-21T10:49:45;35.40;29.50
11246;DHT22;59870;50.106;8.580;2022-08-21T10:52:36;35.30;29.80
11246;DHT22;59870;50.106;8.580;2022-08-21T10:55:26;35.20;29.90
11246;DHT22;59870;50.106;8.580;2022-08-21T10:58:06;35.10;30.00
11246;DHT22;59870;50.106;8.580;2022-08-21T11:01:09;34.90;29.90
11246;DHT22;59870;50.106;8.580;2022-08-21T11:03:50;34.80;30.00
11246;DHT22;59870;50.106;8.580;2022-08-21T11:06:31;34.80;30.00
11246;DHT22;59870;50.106;8.580;2022-08-21T11:09:11;34.70;29.80
11246;DHT22;59870;50.106;8.580;2022-08-21T11:11:46;34.60;30.00
11246;DHT22;59870;50.106;8.580;2022-08-21T11:15:02;34.50;30.30
11246;DHT22;59870;50.106;8.580;2022-08-21T11:18:00;34.40;29.80
11246;DHT22;59870;50.106;8.580;2022-08-21T11:23:09;34.20;30.80
11246;DHT22;59870;50.106;8.580;2022-08-21T11:25:47;34.10;30.80
11246;DHT22;59870;50.106;8.580;2022-08-21T11:28:33;34.00;31.10
11246;DHT22;59870;50.106;8.580;2022-08-21T11:31:49;33.90;30.60
11246;DHT22;59870;50.106;8.580;2022-08-21T11:34:22;33.90;31.20
11246;DHT22;59870;50.106;8.580;2022-08-21T11:37:02;33.80;30.60
11246;DHT22;59870;50.106;8.580;2022-08-21T11:45:27;33.50;31.20
11246;DHT22;59870;50.106;8.580;2022-08-21T11:50:36;33.20;31.30
11246;DHT22;59870;50.106;8.580;2022-08-21T11:53:15;33.30;30.90
11246;DHT22;59870;50.106;8.580;2022-08-21T11:55:57;33.30;32.20
11246;DHT22;59870;50.106;8.580;2022-08-21T11:58:48;33.30;31.20
11246;DHT22;59870;50.106;8.580;2022-08-21T12:01:20;33.30;31.10
11246;DHT22;59870;50.106;8.580;2022-08-21T12:03:56;33.20;30.50
11246;DHT22;59870;50.106;8.580;2022-08-21T12:06:34;33.10;31.10
11246;DHT22;59870;50.106;8.580;2022-08-21T12:09:09;32.90;31.70
11246;DHT22;59870;50.106;8.580;2022-08-21T12:11:50;32.80;31.90
11246;DHT22;59870;50.106;8.580;2022-08-21T12:14:19;32.70;31.70
11246;DHT22;59870;50.106;8.580;2022-08-21T12:16:48;32.70;31.30
11246;DHT22;59870;50.106;8.580;2022-08-21T12:24:39;32.50;32.10
11246;DHT22;59870;50.106;8.580;2022-08-21T12:27:27;32.60;31.80
11246;DHT22;59870;50.106;8.580;2022-08-21T12:30:00;32.50;31.80
11246;DHT22;59870;50.106;8.580;2022-08-21T12:32:41;32.40;31.80
11246;DHT22;59870;50.106;8.580;2022-08-21T12:35:18;32.40;31.60
11246;DHT22;59870;50.106;8.580;2022-08-21T12:40:47;32.30;31.30
11246;DHT22;59870;50.106;8.580;2022-08-21T12:43:25;32.20;31.10
11246;DHT22;59870;50.106;8.580;2022-08-21T12:45:53;32.30;31.00
11246;DHT22;59870;50.106;8.580;2022-08-21T12:48:25;32.30;31.20
11246;DHT22;59870;50.106;8.580;2022-08-21T12:51:06;32.20;31.80
11246;DHT22;59870;50.106;8.580;2022-08-21T12:53:54;32.20;31.00
11246;DHT22;59870;50.106;8.580;2022-08-21T12:56:25;32.10;31.40
11246;DHT22;59870;50.106;8.580;2022-08-21T12:59:04;32.10;31.40
11246;DHT22;59870;50.106;8.580;2022-08-21T13:01:39;32.10;31.50
11246;DHT22;59870;50.106;8.580;2022-08-21T13:04:15;32.20;31.60
11246;DHT22;59870;50.106;8.580;2022-08-21T13:06:47;32.20;30.30
11246;DHT22;59870;50.106;8.580;2022-08-21T13:09:19;32.50;30.90
11246;DHT22;59870;50.106;8.580;2022-08-21T13:11:48;32.30;31.50
11246;DHT22;59870;50.106;8.580;2022-08-21T13:14:37;32.10;31.10
11246;DHT22;59870;50.106;8.580;2022-08-21T13:17:14;32.10;31.30
11246;DHT22;59870;50.106;8.580;2022-08-21T13:20:01;32.00;31.00
11246;DHT22;59870;50.106;8.580;2022-08-21T13:22:30;32.00;31.50
11246;DHT22;59870;50.106;8.580;2022-08-21T13:25:02;31.90;31.90
11246;DHT22;59870;50.106;8.580;2022-08-21T13:27:33;31.90;32.20
11246;DHT22;59870;50.106;8.580;2022-08-21T13:30:11;31.80;32.00
11246;DHT22;59870;50.106;8.580;2022-08-21T13:32:43;31.70;31.90
11246;DHT22;59870;50.106;8.580;2022-08-21T13:35:18;31.70;31.50
11246;DHT22;59870;50.106;8.580;2022-08-21T13:37:47;31.60;32.60
11246;DHT22;59870;50.106;8.580;2022-08-21T13:40:23;31.70;32.80
11246;DHT22;59870;50.106;8.580;2022-08-21T13:42:51;31.70;32.60
11246;DHT22;59870;50.106;8.580;2022-08-21T13:45:25;31.90;31.90
11246;DHT22;59870;50.106;8.580;2022-08-21T13:47:54;31.90;32.30
11246;DHT22;59870;50.106;8.580;2022-08-21T13:50:24;31.90;32.30
11246;DHT22;59870;50.106;8.580;2022-08-21T13:53:06;32.00;31.70
11246;DHT22;59870;50.106;8.580;2022-08-21T13:55:37;31.90;31.70
11246;DHT22;59870;50.106;8.580;2022-08-21T13:58:06;31.90;31.90
11246;DHT22;59870;50.106;8.580;2022-08-21T14:00:44;31.90;32.50
11246;DHT22;59870;50.106;8.580;2022-08-21T14:03:23;31.90;31.70
11246;DHT22;59870;50.106;8.580;2022-08-21T14:05:52;32.00;31.50
11246;DHT22;59870;50.106;8.580;2022-08-21T14:10:57;31.90;31.20
11246;DHT22;59870;50.106;8.580;2022-08-21T14:13:37;31.90;31.30
11246;DHT22;59870;50.106;8.580;2022-08-21T14:16:21;31.80;31.40
11246;DHT22;59870;50.106;8.580;2022-08-21T14:18:53;31.70;31.50
11246;DHT22;59870;50.106;8.580;2022-08-21T14:21:32;31.90;31.60
11246;DHT22;59870;50.106;8.580;2022-08-21T14:26:56;31.60;31.30
11246;DHT22;59870;50.106;8.580;2022-08-21T14:29:27;31.60;31.30
11246;DHT22;59870;50.106;8.580;2022-08-21T14:32:30;31.60;31.30
11246;DHT22;59870;50.106;8.580;2022-08-21T14:34:59;31.50;31.00
11246;DHT22;59870;50.106;8.580;2022-08-21T14:37:26;31.60;30.70
11246;DHT22;59870;50.106;8.580;2022-08-21T14:39:53;31.60;30.60
11246;DHT22;59870;50.106;8.580;2022-08-21T14:42:21;31.60;31.70
11246;DHT22;59870;50.106;8.580;2022-08-21T14:44:49;31.60;30.80
11246;DHT22;59870;50.106;8.580;2022-08-21T14:47:16;31.70;30.70
11246;DHT22;59870;50.106;8.580;2022-08-21T14:49:43;31.80;30.50
11246;DHT22;59870;50.106;8.580;2022-08-21T14:52:11;31.80;30.40
11246;DHT22;59870;50.106;8.580;2022-08-21T14:54:38;32.30;30.50
11246;DHT22;59870;50.106;8.580;2022-08-21T14:57:09;32.00;30.20
11246;DHT22;59870;50.106;8.580;2022-08-21T14:59:37;32.00;30.40
11246;DHT22;59870;50.106;8.580;2022-08-21T15:02:06;32.10;30.00
11246;DHT22;59870;50.106;8.580;2022-08-21T15:04:34;32.10;29.90
11246;DHT22;59870;50.106;8.580;2022-08-21T15:07:06;32.20;29.60
11246;DHT22;59870;50.106;8.580;2022-08-21T15:09:34;32.20;29.90
11246;DHT22;59870;50.106;8.580;2022-08-21T15:12:02;32.20;29.50
11246;DHT22;59870;50.106;8.580;2022-08-21T15:14:32;32.20;30.80
11246;DHT22;59870;50.106;8.580;2022-08-21T15:17:01;32.10;30.40
11246;DHT22;59870;50.106;8.580;2022-08-21T15:19:30;32.20;31.10
11246;DHT22;59870;50.106;8.580;2022-08-21T15:21:58;32.20;29.50
11246;DHT22;59870;50.106;8.580;2022-08-21T15:24:26;32.20;29.60
11246;DHT22;59870;50.106;8.580;2022-08-21T15:26:54;32.20;29.20
11246;DHT22;59870;50.106;8.580;2022-08-21T15:29:22;32.20;29.00
11246;DHT22;59870;50.106;8.580;2022-08-21T15:31:55;32.20;28.90
11246;DHT22;59870;50.106;8.580;2022-08-21T15:34:25;32.20;28.90
11246;DHT22;59870;50.106;8.580;2022-08-21T15:36:57;32.10;29.00
11246;DHT22;59870;50.106;8.580;2022-08-21T15:39:26;32.10;28.90
11246;DHT22;59870;50.106;8.580;2022-08-21T15:41:58;32.00;29.30
11246;DHT22;59870;50.106;8.580;2022-08-21T15:44:33;32.10;29.30
11246;DHT22;59870;50.106;8.580;2022-08-21T15:47:01;32.10;29.40
11246;DHT22;59870;50.106;8.580;2022-08-21T15:49:29;32.10;29.70
11246;DHT22;59870;50.106;8.580;2022-08-21T15:51:57;32.20;29.50
11246;DHT22;59870;50.106;8.580;2022-08-21T15:54:25;32.20;29.90
11246;DHT22;59870;50.106;8.580;2022-08-21T15:56:52;32.20;29.40
11246;DHT22;59870;50.106;8.580;2022-08-21T15:59:22;32.20;29.20
11246;DHT22;59870;50.106;8.580;2022-08-21T16:01:50;32.30;28.70
11246;DHT22;59870;50.106;8.580;2022-08-21T16:04:25;32.30;28.70
11246;DHT22;59870;50.106;8.580;2022-08-21T16:06:53;32.30;28.50
11246;DHT22;59870;50.106;8.580;2022-08-21T16:09:30;32.40;28.50
11246;DHT22;59870;50.106;8.580;2022-08-21T16:11:59;32.30;28.90
11246;DHT22;59870;50.106;8.580;2022-08-21T16:14:29;32.30;29.00
11246;DHT22;59870;50.106;8.580;2022-08-21T16:16:57;32.30;29.20
11246;DHT22;59870;50.106;8.580;2022-08-21T16:19:27;32.30;29.30
11246;DHT22;59870;50.106;8.580;2022-08-21T16:21:55;32.30;29.10
11246;DHT22;59870;50.106;8.580;2022-08-21T16:24:22;32.40;29.20
11246;DHT22;59870;50.106;8.580;2022-08-21T16:26:49;32.30;28.90
11246;DHT22;59870;50.106;8.580;2022-08-21T16:29:35;32.20;29.20
11246;DHT22;59870;50.106;8.580;2022-08-21T16:32:04;32.20;28.70
11246;DHT22;59870;50.106;8.580;2022-08-21T16:34:32;32.20;28.10
11246;DHT22;59870;50.106;8.580;2022-08-21T16:37:00;32.20;27.90
11246;DHT22;59870;50.106;8.580;2022-08-21T16:39:27;32.10;28.90
11246;DHT22;59870;50.106;8.580;2022-08-21T16:41:55;32.10;28.10
11246;DHT22;59870;50.106;8.580;2022-08-21T16:44:22;32.10;28.20
11246;DHT22;59870;50.106;8.580;2022-08-21T16:46:50;32.00;28.10
11246;DHT22;59870;50.106;8.580;2022-08-21T16:49:17;32.00;28.60
11246;DHT22;59870;50.106;8.580;2022-08-21T16:51:45;32.00;29.70
11246;DHT22;59870;50.106;8.580;2022-08-21T16:54:12;32.10;28.50
11246;DHT22;59870;50.106;8.580;2022-08-21T16:56:40;32.00;28.70
11246;DHT22;59870;50.106;8.580;2022-08-21T16:59:13;32.00;28.90
11246;DHT22;59870;50.106;8.580;2022-08-21T17:01:44;32.00;28.80
11246;DHT22;59870;50.106;8.580;2022-08-21T17:04:12;32.00;28.90
11246;DHT22;59870;50.106;8.580;2022-08-21T17:06:39;32.00;29.00
11246;DHT22;59870;50.106;8.580;2022-08-21T17:09:07;31.90;29.10
11246;DHT22;59870;50.106;8.580;2022-08-21T17:11:38;31.90;29.00
11246;DHT22;59870;50.106;8.580;2022-08-21T17:14:10;31.90;29.00
11246;DHT22;59870;50.106;8.580;2022-08-21T17:16:39;31.90;29.10
11246;DHT22;59870;50.106;8.580;2022-08-21T17:19:07;31.80;29.00
11246;DHT22;59870;50.106;8.580;2022-08-21T17:21:34;31.70;28.80
11246;DHT22;59870;50.106;8.580;2022-08-21T17:24:02;31.70;28.70
11246;DHT22;59870;50.106;8.580;2022-08-21T17:26:30;31.60;28.70
11246;DHT22;59870;50.106;8.580;2022-08-21T17:28:58;31.60;28.80
11246;DHT22;59870;50.106;8.580;2022-08-21T17:31:26;31.50;28.80
11246;DHT22;59870;50.106;8.580;2022-08-21T17:33:54;31.50;28.80
11246;DHT22;59870;50.106;8.580;2022-08-21T17:36:27;31.30;28.80
11246;DHT22;59870;50.106;8.580;2022-08-21T17:38:56;31.30;29.10
11246;DHT22;59870;50.106;8.580;2022-08-21T17:41:24;31.20;29.40
11246;DHT22;59870;50.106;8.580;2022-08-21T17:43:53;31.10;29.60
11246;DHT22;59870;50.106;8.580;2022-08-21T17:46:26;31.10;29.80
11246;DHT22;59870;50.106;8.580;2022-08-21T17:48:55;31.00;29.90
11246;DHT22;59870;50.106;8.580;2022-08-21T17:51:28;31.00;29.80
11246;DHT22;59870;50.106;8.580;2022-08-21T17:53:55;31.00;29.90
11246;DHT22;59870;50.106;8.580;2022-08-21T17:56:30;30.90;29.50
11246;DHT22;59870;50.106;8.580;2022-08-21T17:58:58;30.80;29.70
11246;DHT22;59870;50.106;8.580;2022-08-21T18:01:28;30.70;29.30
11246;DHT22;59870;50.106;8.580;2022-08-21T18:03:59;30.70;29.40
11246;DHT22;59870;50.106;8.580;2022-08-21T18:06:26;30.70;29.10